sensor_id;sensor_type;location;lat;lon;timestamp;pressure;altitude;pressure_sealevel;temperature;humidity
58223;BME280;44020;50.890;15.796;2023-04-28T00:04:35;97971.46;;;3.66;65.53
58223;BME280;44020;50.890;15.796;2023-04-28T00:07:13;97970.66;;;3.64;65.52
58223;BME280;44020;50.890;15.796;2023-04-28T00:09:42;97967.84;;;3.64;65.79
58223;BME280;44020;50.890;15.796;2023-04-28T00:15:49;97965.52;;;3.60;65.61
58223;BME280;44020;50.890;15.796;2023-04-28T00:18:55;97963.57;;;3.56;65.78
58223;BME280;44020;50.890;15.796;2023-04-28T00:22:10;97964.60;;;3.57;65.90
58223;BME280;44020;50.890;15.796;2023-04-28T00:25:20;97957.31;;;3.54;66.16
58223;BME280;44020;50.890;15.796;2023-04-28T00:28:18;97958.98;;;3.52;66.32
58223;BME280;44020;50.890;15.796;2023-04-28T00:35:38;97958.39;;;3.44;66.45
58223;BME280;44020;50.890;15.796;2023-04-28T00:38:47;97961.13;;;3.42;66.40
58223;BME280;44020;50.890;15.796;2023-04-28T00:44:18;97949.94;;;3.40;67.02
58223;BME280;44020;50.890;15.796;2023-04-28T00:50:47;97942.64;;;3.42;67.08
58223;BME280;44020;50.890;15.796;2023-04-28T01:03:24;97931.39;;;3.29;66.88
58223;BME280;44020;50.890;15.796;2023-04-28T01:13:15;97926.18;;;3.18;66.95
58223;BME280;44020;50.890;15.796;2023-04-28T01:19:19;97926.46;;;3.15;67.30
58223;BME280;44020;50.890;15.796;2023-04-28T01:26:13;97917.23;;;3.08;67.67
58223;BME280;44020;50.890;15.796;2023-04-28T01:35:20;97922.00;;;3.02;67.38
58223;BME280;44020;50.890;15.796;2023-04-28T01:55:20;97912.06;;;2.81;67.81
58223;BME280;44020;50.890;15.796;2023-04-28T01:58:10;97909.52;;;2.80;67.97
58223;BME280;44020;50.890;15.796;2023-04-28T02:07:30;97903.02;;;2.69;68.01
58223;BME280;44020;50.890;15.796;2023-04-28T02:10:17;97905.54;;;2.67;68.15
58223;BME280;44020;50.890;15.796;2023-04-28T02:19:33;97904.40;;;2.60;68.29
58223;BME280;44020;50.890;15.796;2023-04-28T02:29:49;97892.36;;;2.53;68.66
58223;BME280;44020;50.890;15.796;2023-04-28T02:36:27;97886.73;;;2.54;68.66
58223;BME280;44020;50.890;15.796;2023-04-28T02:42:13;97892.95;;;2.46;68.61
58223;BME280;44020;50.890;15.796;2023-04-28T02:45:43;97891.11;;;2.44;68.78
58223;BME280;44020;50.890;15.796;2023-04-28T02:58:39;97886.98;;;2.36;69.24
58223;BME280;44020;50.890;15.796;2023-04-28T03:01:04;97884.23;;;2.35;69.13
58223;BME280;44020;50.890;15.796;2023-04-28T03:07:09;97881.33;;;2.33;69.24
58223;BME280;44020;50.890;15.796;2023-04-28T03:10:15;97880.02;;;2.29;69.17
58223;BME280;44020;50.890;15.796;2023-04-28T03:29:49;97872.84;;;2.19;69.75
58223;BME280;44020;50.890;15.796;2023-04-28T03:36:32;97873.38;;;2.19;69.76
58223;BME280;44020;50.890;15.796;2023-04-28T03:42:12;97868.53;;;2.17;70.01
58223;BME280;44020;50.890;15.796;2023-04-28T03:55:34;97855.02;;;2.13;70.24
58223;BME280;44020;50.890;15.796;2023-04-28T03:59:02;97854.44;;;2.14;70.31
58223;BME280;44020;50.890;15.796;2023-04-28T04:08:00;97846.45;;;2.17;70.49
58223;BME280;44020;50.890;15.796;2023-04-28T04:10:43;97845.73;;;2.17;70.22
58223;BME280;44020;50.890;15.796;2023-04-28T04:13:42;97841.14;;;2.18;70.78
58223;BME280;44020;50.890;15.796;2023-04-28T04:16:37;97837.17;;;2.22;70.46
58223;BME280;44020;50.890;15.796;2023-04-28T04:19:18;97840.56;;;2.20;70.54
58223;BME280;44020;50.890;15.796;2023-04-28T04:23:01;97838.63;;;2.21;70.86
58223;BME280;44020;50.890;15.796;2023-04-28T04:25:56;97839.63;;;2.21;70.85
58223;BME280;44020;50.890;15.796;2023-04-28T04:28:35;97837.33;;;2.22;70.99
58223;BME280;44020;50.890;15.796;2023-04-28T04:31:05;97841.66;;;2.24;71.05
58223;BME280;44020;50.890;15.796;2023-04-28T04:34:09;97836.88;;;2.25;70.88
58223;BME280;44020;50.890;15.796;2023-04-28T04:37:08;97830.71;;;2.26;71.18
58223;BME280;44020;50.890;15.796;2023-04-28T04:39:43;97832.92;;;2.28;71.59
58223;BME280;44020;50.890;15.796;2023-04-28T04:42:21;97831.31;;;2.28;71.24
58223;BME280;44020;50.890;15.796;2023-04-28T04:45:21;97831.15;;;2.28;71.33
58223;BME280;44020;50.890;15.796;2023-04-28T04:48:02;97830.84;;;2.27;71.41
58223;BME280;44020;50.890;15.796;2023-04-28T04:50:41;97833.33;;;2.27;71.75
58223;BME280;44020;50.890;15.796;2023-04-28T04:53:22;97826.09;;;2.28;71.63
58223;BME280;44020;50.890;15.796;2023-04-28T04:56:21;97830.06;;;2.29;71.94
58223;BME280;44020;50.890;15.796;2023-04-28T04:58:52;97830.64;;;2.33;71.93
58223;BME280;44020;50.890;15.796;2023-04-28T05:01:31;97827.24;;;2.35;72.24
58223;BME280;44020;50.890;15.796;2023-04-28T05:04:05;97827.30;;;2.38;72.03
58223;BME280;44020;50.890;15.796;2023-04-28T05:09:33;97811.80;;;2.45;72.43
58223;BME280;44020;50.890;15.796;2023-04-28T05:12:22;97809.23;;;2.48;72.39
58223;BME280;44020;50.890;15.796;2023-04-28T05:15:04;97809.63;;;2.52;72.09
58223;BME280;44020;50.890;15.796;2023-04-28T05:17:41;97808.82;;;2.55;72.20
58223;BME280;44020;50.890;15.796;2023-04-28T05:20:27;97809.71;;;2.59;72.28
58223;BME280;44020;50.890;15.796;2023-04-28T05:22:59;97811.02;;;2.62;72.54
58223;BME280;44020;50.890;15.796;2023-04-28T05:25:32;97808.41;;;2.66;72.55
58223;BME280;44020;50.890;15.796;2023-04-28T05:28:11;97806.66;;;2.70;72.73
58223;BME280;44020;50.890;15.796;2023-04-28T05:30:51;97802.34;;;2.74;73.03
58223;BME280;44020;50.890;15.796;2023-04-28T05:33:28;97805.98;;;2.80;72.61
58223;BME280;44020;50.890;15.796;2023-04-28T05:42:25;97795.40;;;3.00;73.38
58223;BME280;44020;50.890;15.796;2023-04-28T05:45:12;97792.91;;;3.09;73.30
58223;BME280;44020;50.890;15.796;2023-04-28T05:48:00;97789.45;;;3.17;73.27
58223;BME280;44020;50.890;15.796;2023-04-28T05:50:37;97788.82;;;3.24;73.19
58223;BME280;44020;50.890;15.796;2023-04-28T05:53:07;97788.90;;;3.31;73.62
58223;BME280;44020;50.890;15.796;2023-04-28T05:58:51;97786.81;;;3.48;73.46
58223;BME280;44020;50.890;15.796;2023-04-28T06:01:34;97785.10;;;3.56;73.69
58223;BME280;44020;50.890;15.796;2023-04-28T06:04:04;97780.17;;;3.64;73.79
58223;BME280;44020;50.890;15.796;2023-04-28T06:06:44;97781.61;;;3.72;74.04
58223;BME280;44020;50.890;15.796;2023-04-28T06:12:48;97770.90;;;3.89;74.17
58223;BME280;44020;50.890;15.796;2023-04-28T06:16:01;97769.31;;;3.97;74.32
58223;BME280;44020;50.890;15.796;2023-04-28T06:18:37;97767.02;;;4.06;74.28
58223;BME280;44020;50.890;15.796;2023-04-28T06:21:39;97758.05;;;4.14;74.48
58223;BME280;44020;50.890;15.796;2023-04-28T06:24:31;97751.16;;;4.23;74.52
58223;BME280;44020;50.890;15.796;2023-04-28T06:27:24;97750.67;;;4.33;74.81
58223;BME280;44020;50.890;15.796;2023-04-28T06:30:38;97748.17;;;4.42;74.68
58223;BME280;44020;50.890;15.796;2023-04-28T06:38:30;97741.84;;;4.69;74.79
58223;BME280;44020;50.890;15.796;2023-04-28T06:41:23;97744.39;;;4.79;74.54
58223;BME280;44020;50.890;15.796;2023-04-28T06:44:12;97744.80;;;4.89;74.60
58223;BME280;44020;50.890;15.796;2023-04-28T06:47:12;97736.34;;;5.01;74.54
58223;BME280;44020;50.890;15.796;2023-04-28T06:52:57;97732.61;;;5.27;74.33
58223;BME280;44020;50.890;15.796;2023-04-28T06:55:45;97732.21;;;5.39;74.28
58223;BME280;44020;50.890;15.796;2023-04-28T06:58:36;97731.10;;;5.54;74.47
58223;BME280;44020;50.890;15.796;2023-04-28T07:01:33;97729.80;;;5.70;74.05
58223;BME280;44020;50.890;15.796;2023-04-28T07:04:17;97720.39;;;5.85;73.77
58223;BME280;44020;50.890;15.796;2023-04-28T07:07:13;97717.81;;;6.02;73.73
58223;BME280;44020;50.890;15.796;2023-04-28T07:09:51;97714.79;;;6.19;73.80
58223;BME280;44020;50.890;15.796;2023-04-28T07:13:11;97713.33;;;6.37;73.69
58223;BME280;44020;50.890;15.796;2023-04-28T07:21:48;97703.90;;;7.09;73.41
58223;BME280;44020;50.890;15.796;2023-04-28T07:25:05;97698.23;;;7.28;72.99
58223;BME280;44020;50.890;15.796;2023-04-28T07:27:46;97692.53;;;7.50;72.26
58223;BME280;44020;50.890;15.796;2023-04-28T07:30:16;97692.50;;;7.66;71.57
58223;BME280;44020;50.890;15.796;2023-04-28T07:32:44;97686.35;;;7.81;70.86
58223;BME280;44020;50.890;15.796;2023-04-28T07:35:18;97685.43;;;7.96;70.38
58223;BME280;44020;50.890;15.796;2023-04-28T07:37:45;97683.60;;;8.11;69.64
58223;BME280;44020;50.890;15.796;2023-04-28T07:40:21;97684.19;;;8.25;68.93
58223;BME280;44020;50.890;15.796;2023-04-28T07:42:58;97682.19;;;8.40;68.05
58223;BME280;44020;50.890;15.796;2023-04-28T07:45:39;97683.12;;;8.57;67.50
58223;BME280;44020;50.890;15.796;2023-04-28T07:48:09;97680.55;;;8.67;67.29
58223;BME280;44020;50.890;15.796;2023-04-28T07:50:37;97677.14;;;8.79;67.20
58223;BME280;44020;50.890;15.796;2023-04-28T07:53:18;97677.27;;;8.97;67.21
58223;BME280;44020;50.890;15.796;2023-04-28T07:55:48;97673.25;;;9.12;66.46
58223;BME280;44020;50.890;15.796;2023-04-28T07:58:18;97669.84;;;9.21;65.84
58223;BME280;44020;50.890;15.796;2023-04-28T08:00:48;97669.58;;;9.30;65.08
58223;BME280;44020;50.890;15.796;2023-04-28T08:03:24;97664.61;;;9.42;64.35
58223;BME280;44020;50.890;15.796;2023-04-28T08:05:55;97665.08;;;9.50;63.67
58223;BME280;44020;50.890;15.796;2023-04-28T08:08:26;97662.25;;;9.58;63.15
58223;BME280;44020;50.890;15.796;2023-04-28T08:10:59;97658.20;;;9.66;62.42
58223;BME280;44020;50.890;15.796;2023-04-28T08:13:49;97659.84;;;9.73;62.15
58223;BME280;44020;50.890;15.796;2023-04-28T08:16:17;97656.54;;;9.82;61.54
58223;BME280;44020;50.890;15.796;2023-04-28T08:18:54;97652.23;;;9.93;61.23
58223;BME280;44020;50.890;15.796;2023-04-28T08:21:22;97653.14;;;10.09;60.55
58223;BME280;44020;50.890;15.796;2023-04-28T08:23:55;97646.56;;;10.22;59.90
58223;BME280;44020;50.890;15.796;2023-04-28T08:26:36;97644.55;;;10.33;59.37
58223;BME280;44020;50.890;15.796;2023-04-28T08:29:10;97645.77;;;10.41;58.75
58223;BME280;44020;50.890;15.796;2023-04-28T08:31:41;97640.13;;;10.50;58.04
58223;BME280;44020;50.890;15.796;2023-04-28T08:34:08;97640.41;;;10.59;57.39
58223;BME280;44020;50.890;15.796;2023-04-28T08:36:50;97640.17;;;10.67;56.97
58223;BME280;44020;50.890;15.796;2023-04-28T08:42:11;97637.80;;;10.90;56.80
58223;BME280;44020;50.890;15.796;2023-04-28T08:44:42;97632.69;;;11.04;56.52
58223;BME280;44020;50.890;15.796;2023-04-28T08:47:20;97627.02;;;11.21;56.18
58223;BME280;44020;50.890;15.796;2023-04-28T08:50:02;97624.32;;;11.33;55.44
58223;BME280;44020;50.890;15.796;2023-04-28T08:52:34;97621.26;;;11.46;55.21
58223;BME280;44020;50.890;15.796;2023-04-28T08:55:33;97619.95;;;11.58;55.22
58223;BME280;44020;50.890;15.796;2023-04-28T08:58:26;97619.73;;;11.71;54.50
58223;BME280;44020;50.890;15.796;2023-04-28T09:00:57;97617.80;;;11.82;54.25
58223;BME280;44020;50.890;15.796;2023-04-28T09:03:34;97621.25;;;11.95;53.69
58223;BME280;44020;50.890;15.796;2023-04-28T09:06:05;97615.99;;;12.06;53.31
58223;BME280;44020;50.890;15.796;2023-04-28T09:08:39;97607.84;;;12.17;53.02
58223;BME280;44020;50.890;15.796;2023-04-28T09:11:07;97610.10;;;12.29;52.97
58223;BME280;44020;50.890;15.796;2023-04-28T09:13:48;97607.27;;;12.40;52.59
58223;BME280;44020;50.890;15.796;2023-04-28T09:16:18;97607.83;;;12.49;52.29
58223;BME280;44020;50.890;15.796;2023-04-28T09:19:21;97610.38;;;12.52;51.97
58223;BME280;44020;50.890;15.796;2023-04-28T09:21:55;97600.38;;;12.59;51.85
58223;BME280;44020;50.890;15.796;2023-04-28T09:24:43;97595.27;;;12.74;51.65
58223;BME280;44020;50.890;15.796;2023-04-28T09:27:30;97593.41;;;12.86;51.39
58223;BME280;44020;50.890;15.796;2023-04-28T09:30:07;97588.11;;;12.97;50.68
58223;BME280;44020;50.890;15.796;2023-04-28T09:32:41;97585.47;;;13.09;50.70
58223;BME280;44020;50.890;15.796;2023-04-28T09:35:15;97582.86;;;13.23;50.82
58223;BME280;44020;50.890;15.796;2023-04-28T09:37:47;97579.70;;;13.32;50.07
58223;BME280;44020;50.890;15.796;2023-04-28T09:40:26;97579.19;;;13.38;49.56
58223;BME280;44020;50.890;15.796;2023-04-28T09:43:00;97573.63;;;13.47;49.23
58223;BME280;44020;50.890;15.796;2023-04-28T09:45:38;97572.23;;;13.55;48.85
58223;BME280;44020;50.890;15.796;2023-04-28T09:48:11;97572.56;;;13.64;48.95
58223;BME280;44020;50.890;15.796;2023-04-28T09:50:58;97572.71;;;13.74;48.47
58223;BME280;44020;50.890;15.796;2023-04-28T09:53:39;97563.21;;;13.83;48.24
58223;BME280;44020;50.890;15.796;2023-04-28T09:56:33;97559.13;;;13.91;47.70
58223;BME280;44020;50.890;15.796;2023-04-28T10:05:07;97549.63;;;14.18;47.46
58223;BME280;44020;50.890;15.796;2023-04-28T10:08:05;97548.09;;;14.20;46.84
58223;BME280;44020;50.890;15.796;2023-04-28T10:10:45;97551.80;;;14.18;46.64
58223;BME280;44020;50.890;15.796;2023-04-28T10:13:35;97547.04;;;14.15;46.24
58223;BME280;44020;50.890;15.796;2023-04-28T10:16:06;97545.02;;;14.20;46.32
58223;BME280;44020;50.890;15.796;2023-04-28T10:18:37;97550.67;;;14.37;46.43
58223;BME280;44020;50.890;15.796;2023-04-28T10:21:28;97548.00;;;14.47;45.63
58223;BME280;44020;50.890;15.796;2023-04-28T10:24:27;97544.34;;;14.48;45.85
58223;BME280;44020;50.890;15.796;2023-04-28T10:27:11;97543.55;;;14.53;45.00
58223;BME280;44020;50.890;15.796;2023-04-28T10:29:45;97547.52;;;14.57;44.78
58223;BME280;44020;50.890;15.796;2023-04-28T10:32:34;97553.38;;;14.57;44.33
58223;BME280;44020;50.890;15.796;2023-04-28T10:38:14;97537.16;;;14.46;44.34
58223;BME280;44020;50.890;15.796;2023-04-28T10:40:46;97527.92;;;14.46;44.64
58223;BME280;44020;50.890;15.796;2023-04-28T10:43:50;97521.96;;;14.50;44.46
58223;BME280;44020;50.890;15.796;2023-04-28T10:46:22;97514.96;;;14.55;44.59
58223;BME280;44020;50.890;15.796;2023-04-28T10:49:02;97517.73;;;14.60;44.56
58223;BME280;44020;50.890;15.796;2023-04-28T10:51:41;97514.54;;;14.60;44.04
58223;BME280;44020;50.890;15.796;2023-04-28T10:57:34;97513.70;;;14.61;43.60
58223;BME280;44020;50.890;15.796;2023-04-28T11:00:26;97505.21;;;14.62;43.60
58223;BME280;44020;50.890;15.796;2023-04-28T11:12:23;97485.20;;;15.07;43.87
58223;BME280;44020;50.890;15.796;2023-04-28T11:14:53;97491.93;;;15.17;43.82
58223;BME280;44020;50.890;15.796;2023-04-28T11:17:39;97487.45;;;15.29;43.10
58223;BME280;44020;50.890;15.796;2023-04-28T11:20:12;97487.17;;;15.47;42.79
58223;BME280;44020;50.890;15.796;2023-04-28T11:22:43;97481.77;;;15.65;42.29
58223;BME280;44020;50.890;15.796;2023-04-28T11:25:20;97483.04;;;15.82;42.75
58223;BME280;44020;50.890;15.796;2023-04-28T11:30:41;97500.48;;;16.00;42.47
58223;BME280;44020;50.890;15.796;2023-04-28T11:33:09;97497.56;;;16.00;42.32
58223;BME280;44020;50.890;15.796;2023-04-28T11:35:42;97496.35;;;16.00;41.91
58223;BME280;44020;50.890;15.796;2023-04-28T11:38:23;97497.71;;;15.99;42.13
58223;BME280;44020;50.890;15.796;2023-04-28T11:40:56;97501.32;;;15.95;41.64
58223;BME280;44020;50.890;15.796;2023-04-28T11:46:29;97487.45;;;15.88;42.01
58223;BME280;44020;50.890;15.796;2023-04-28T11:49:04;97486.52;;;15.83;42.02
58223;BME280;44020;50.890;15.796;2023-04-28T11:51:55;97484.59;;;15.73;41.19
58223;BME280;44020;50.890;15.796;2023-04-28T11:54:29;97480.08;;;15.64;41.10
58223;BME280;44020;50.890;15.796;2023-04-28T11:57:20;97480.73;;;15.65;41.53
58223;BME280;44020;50.890;15.796;2023-04-28T12:00:14;97478.44;;;15.72;41.77
58223;BME280;44020;50.890;15.796;2023-04-28T12:02:48;97467.83;;;15.86;42.24
58223;BME280;44020;50.890;15.796;2023-04-28T12:05:21;97467.64;;;15.93;41.97
58223;BME280;44020;50.890;15.796;2023-04-28T12:08:11;97472.89;;;16.02;41.81
58223;BME280;44020;50.890;15.796;2023-04-28T12:11:08;97475.23;;;16.06;41.30
58223;BME280;44020;50.890;15.796;2023-04-28T12:14:09;97473.46;;;16.07;41.27
58223;BME280;44020;50.890;15.796;2023-04-28T12:16:47;97471.15;;;16.03;40.98
58223;BME280;44020;50.890;15.796;2023-04-28T12:19:24;97470.22;;;16.04;41.60
58223;BME280;44020;50.890;15.796;2023-04-28T12:22:18;97461.97;;;16.08;41.67
58223;BME280;44020;50.890;15.796;2023-04-28T12:25:08;97463.69;;;16.14;41.76
58223;BME280;44020;50.890;15.796;2023-04-28T12:28:06;97462.55;;;16.16;41.30
58223;BME280;44020;50.890;15.796;2023-04-28T12:30:49;97459.67;;;16.20;41.19
58223;BME280;44020;50.890;15.796;2023-04-28T12:33:24;97454.41;;;16.24;41.49
58223;BME280;44020;50.890;15.796;2023-04-28T12:36:03;97456.21;;;16.28;41.34
58223;BME280;44020;50.890;15.796;2023-04-28T12:38:34;97451.05;;;16.35;40.91
58223;BME280;44020;50.890;15.796;2023-04-28T12:41:20;97451.41;;;16.50;40.87
58223;BME280;44020;50.890;15.796;2023-04-28T12:44:00;97449.21;;;16.61;40.50
58223;BME280;44020;50.890;15.796;2023-04-28T12:46:28;97452.48;;;16.68;40.37
58223;BME280;44020;50.890;15.796;2023-04-28T12:49:04;97453.70;;;16.73;40.03
58223;BME280;44020;50.890;15.796;2023-04-28T12:51:53;97446.29;;;16.78;40.22
58223;BME280;44020;50.890;15.796;2023-04-28T12:54:38;97448.84;;;16.79;40.15
58223;BME280;44020;50.890;15.796;2023-04-28T12:57:09;97447.60;;;16.81;40.30
58223;BME280;44020;50.890;15.796;2023-04-28T12:59:42;97441.20;;;16.82;40.40
58223;BME280;44020;50.890;15.796;2023-04-28T13:02:18;97434.01;;;16.81;40.14
58223;BME280;44020;50.890;15.796;2023-04-28T13:05:04;97431.63;;;16.75;40.47
58223;BME280;44020;50.890;15.796;2023-04-28T13:07:37;97431.86;;;16.71;40.88
58223;BME280;44020;50.890;15.796;2023-04-28T13:10:17;97422.02;;;16.67;40.69
58223;BME280;44020;50.890;15.796;2023-04-28T13:12:50;97418.67;;;16.63;40.30
58223;BME280;44020;50.890;15.796;2023-04-28T13:15:23;97416.11;;;16.60;40.43
58223;BME280;44020;50.890;15.796;2023-04-28T13:17:53;97416.80;;;16.55;40.54
58223;BME280;44020;50.890;15.796;2023-04-28T13:20:38;97420.40;;;16.50;40.36
58223;BME280;44020;50.890;15.796;2023-04-28T13:23:08;97420.85;;;16.45;40.37
58223;BME280;44020;50.890;15.796;2023-04-28T13:26:14;97425.08;;;16.40;40.24
58223;BME280;44020;50.890;15.796;2023-04-28T13:28:43;97419.23;;;16.32;40.26
58223;BME280;44020;50.890;15.796;2023-04-28T13:31:24;97415.39;;;16.28;40.35
58223;BME280;44020;50.890;15.796;2023-04-28T13:34:14;97408.98;;;16.25;40.81
58223;BME280;44020;50.890;15.796;2023-04-28T13:37:26;97413.21;;;16.20;40.78
58223;BME280;44020;50.890;15.796;2023-04-28T13:43:10;97415.23;;;16.07;40.53
58223;BME280;44020;50.890;15.796;2023-04-28T13:46:19;97415.45;;;16.01;40.78
58223;BME280;44020;50.890;15.796;2023-04-28T13:49:09;97411.98;;;15.94;40.55
58223;BME280;44020;50.890;15.796;2023-04-28T13:55:17;97409.13;;;15.87;40.87
58223;BME280;44020;50.890;15.796;2023-04-28T13:57:53;97408.16;;;15.82;40.92
58223;BME280;44020;50.890;15.796;2023-04-28T14:00:53;97402.38;;;15.77;41.11
58223;BME280;44020;50.890;15.796;2023-04-28T14:03:34;97407.78;;;15.77;41.24
58223;BME280;44020;50.890;15.796;2023-04-28T14:09:24;97406.27;;;15.76;41.54
58223;BME280;44020;50.890;15.796;2023-04-28T14:12:15;97401.59;;;15.74;41.29
58223;BME280;44020;50.890;15.796;2023-04-28T14:17:57;97396.45;;;15.75;41.60
58223;BME280;44020;50.890;15.796;2023-04-28T14:20:56;97393.30;;;15.78;41.51
58223;BME280;44020;50.890;15.796;2023-04-28T14:26:48;97384.09;;;15.83;41.78
58223;BME280;44020;50.890;15.796;2023-04-28T14:29:29;97387.98;;;15.85;41.87
58223;BME280;44020;50.890;15.796;2023-04-28T14:32:09;97390.94;;;15.86;41.96
58223;BME280;44020;50.890;15.796;2023-04-28T14:35:13;97390.57;;;15.86;41.88
58223;BME280;44020;50.890;15.796;2023-04-28T14:37:53;97390.61;;;15.84;41.65
58223;BME280;44020;50.890;15.796;2023-04-28T14:40:24;97389.64;;;15.81;41.58
58223;BME280;44020;50.890;15.796;2023-04-28T14:42:54;97389.86;;;15.80;41.48
58223;BME280;44020;50.890;15.796;2023-04-28T14:45:31;97387.31;;;15.81;41.43
58223;BME280;44020;50.890;15.796;2023-04-28T14:48:01;97386.56;;;15.79;41.35
58223;BME280;44020;50.890;15.796;2023-04-28T14:50:39;97385.64;;;15.78;41.26
58223;BME280;44020;50.890;15.796;2023-04-28T14:53:20;97387.27;;;15.74;41.31
58223;BME280;44020;50.890;15.796;2023-04-28T14:55:56;97384.54;;;15.74;41.42
58223;BME280;44020;50.890;15.796;2023-04-28T14:58:27;97385.10;;;15.76;41.57
58223;BME280;44020;50.890;15.796;2023-04-28T15:01:06;97384.05;;;15.78;41.53
58223;BME280;44020;50.890;15.796;2023-04-28T15:04:01;97381.92;;;15.79;41.52
58223;BME280;44020;50.890;15.796;2023-04-28T15:06:51;97379.53;;;15.81;41.47
58223;BME280;44020;50.890;15.796;2023-04-28T15:09:59;97385.04;;;15.82;41.47
58223;BME280;44020;50.890;15.796;2023-04-28T15:12:31;97382.82;;;15.81;41.46
58223;BME280;44020;50.890;15.796;2023-04-28T15:15:01;97382.51;;;15.80;41.60
58223;BME280;44020;50.890;15.796;2023-04-28T15:18:00;97380.29;;;15.79;41.44
58223;BME280;44020;50.890;15.796;2023-04-28T15:20:32;97376.88;;;15.79;41.74
58223;BME280;44020;50.890;15.796;2023-04-28T15:23:04;97380.46;;;15.78;41.86
58223;BME280;44020;50.890;15.796;2023-04-28T15:25:38;97376.52;;;15.79;42.17
58223;BME280;44020;50.890;15.796;2023-04-28T15:28:09;97380.31;;;15.83;42.16
58223;BME280;44020;50.890;15.796;2023-04-28T15:30:56;97377.55;;;15.84;42.21
58223;BME280;44020;50.890;15.796;2023-04-28T15:33:34;97376.45;;;15.84;42.27
58223;BME280;44020;50.890;15.796;2023-04-28T15:36:07;97375.13;;;15.87;42.50
58223;BME280;44020;50.890;15.796;2023-04-28T15:38:35;97372.59;;;15.91;42.66
58223;BME280;44020;50.890;15.796;2023-04-28T15:41:13;97370.20;;;15.91;42.70
58223;BME280;44020;50.890;15.796;2023-04-28T15:44:01;97370.75;;;15.91;42.68
58223;BME280;44020;50.890;15.796;2023-04-28T15:46:46;97373.02;;;15.88;42.73
58223;BME280;44020;50.890;15.796;2023-04-28T15:49:39;97369.55;;;15.85;42.99
58223;BME280;44020;50.890;15.796;2023-04-28T15:52:10;97369.89;;;15.81;42.95
58223;BME280;44020;50.890;15.796;2023-04-28T15:54:42;97362.77;;;15.75;43.02
58223;BME280;44020;50.890;15.796;2023-04-28T15:57:16;97363.39;;;15.69;43.10
58223;BME280;44020;50.890;15.796;2023-04-28T15:59:46;97363.58;;;15.63;43.04
58223;BME280;44020;50.890;15.796;2023-04-28T16:02:17;97358.05;;;15.59;43.42
58223;BME280;44020;50.890;15.796;2023-04-28T16:04:48;97356.14;;;15.56;43.46
58223;BME280;44020;50.890;15.796;2023-04-28T16:07:26;97355.45;;;15.52;43.56
58223;BME280;44020;50.890;15.796;2023-04-28T16:10:09;97352.08;;;15.52;43.65
58223;BME280;44020;50.890;15.796;2023-04-28T16:12:49;97350.30;;;15.50;43.74
58223;BME280;44020;50.890;15.796;2023-04-28T16:15:21;97353.41;;;15.50;43.80
58223;BME280;44020;50.890;15.796;2023-04-28T16:17:52;97352.66;;;15.52;43.84
58223;BME280;44020;50.890;15.796;2023-04-28T16:20:40;97351.19;;;15.57;43.99
58223;BME280;44020;50.890;15.796;2023-04-28T16:23:15;97347.06;;;15.73;44.04
58223;BME280;44020;50.890;15.796;2023-04-28T16:25:50;97342.34;;;15.97;44.03
58223;BME280;44020;50.890;15.796;2023-04-28T16:28:20;97345.27;;;16.24;44.07
58223;BME280;44020;50.890;15.796;2023-04-28T16:30:48;97338.38;;;16.45;43.91
58223;BME280;44020;50.890;15.796;2023-04-28T16:33:29;97336.25;;;16.59;43.81
58223;BME280;44020;50.890;15.796;2023-04-28T16:35:57;97337.73;;;16.73;43.83
58223;BME280;44020;50.890;15.796;2023-04-28T16:38:39;97331.91;;;16.81;43.63
58223;BME280;44020;50.890;15.796;2023-04-28T16:41:10;97330.44;;;16.77;43.59
58223;BME280;44020;50.890;15.796;2023-04-28T16:44:10;97329.53;;;16.63;43.61
58223;BME280;44020;50.890;15.796;2023-04-28T16:46:49;97336.11;;;16.46;43.56
58223;BME280;44020;50.890;15.796;2023-04-28T16:49:26;97334.86;;;16.31;43.65
58223;BME280;44020;50.890;15.796;2023-04-28T16:52:24;97332.06;;;16.18;43.78
58223;BME280;44020;50.890;15.796;2023-04-28T16:54:52;97328.39;;;16.04;43.87
58223;BME280;44020;50.890;15.796;2023-04-28T16:57:22;97321.54;;;15.94;43.94
58223;BME280;44020;50.890;15.796;2023-04-28T16:59:55;97321.11;;;15.84;44.09
58223;BME280;44020;50.890;15.796;2023-04-28T17:02:33;97319.77;;;15.73;44.09
58223;BME280;44020;50.890;15.796;2023-04-28T17:05:07;97321.84;;;15.65;44.24
58223;BME280;44020;50.890;15.796;2023-04-28T17:07:40;97321.98;;;15.58;44.53
58223;BME280;44020;50.890;15.796;2023-04-28T17:10:16;97326.10;;;15.52;44.59
58223;BME280;44020;50.890;15.796;2023-04-28T17:12:47;97321.79;;;15.47;44.82
58223;BME280;44020;50.890;15.796;2023-04-28T17:15:32;97318.39;;;15.39;44.88
58223;BME280;44020;50.890;15.796;2023-04-28T17:18:03;97317.91;;;15.33;45.18
58223;BME280;44020;50.890;15.796;2023-04-28T17:20:52;97314.59;;;15.27;45.42
58223;BME280;44020;50.890;15.796;2023-04-28T17:23:22;97313.29;;;15.20;45.62
58223;BME280;44020;50.890;15.796;2023-04-28T17:26:21;97309.14;;;15.13;45.95
58223;BME280;44020;50.890;15.796;2023-04-28T17:29:00;97307.65;;;15.06;46.29
58223;BME280;44020;50.890;15.796;2023-04-28T17:31:31;97304.90;;;14.97;46.49
58223;BME280;44020;50.890;15.796;2023-04-28T17:34:07;97303.17;;;14.91;46.39
58223;BME280;44020;50.890;15.796;2023-04-28T17:37:18;97294.58;;;14.85;46.45
58223;BME280;44020;50.890;15.796;2023-04-28T17:39:57;97291.05;;;14.79;46.58
58223;BME280;44020;50.890;15.796;2023-04-28T17:43:06;97293.11;;;14.75;46.65
58223;BME280;44020;50.890;15.796;2023-04-28T17:45:42;97293.84;;;14.70;46.69
58223;BME280;44020;50.890;15.796;2023-04-28T17:48:16;97293.85;;;14.64;46.72
58223;BME280;44020;50.890;15.796;2023-04-28T17:50:44;97293.73;;;14.60;46.82
58223;BME280;44020;50.890;15.796;2023-04-28T17:53:19;97295.56;;;14.57;46.88